Terminal Aerodrome Forecast
Issued by NWS

Home | Current Version | Previous Version | Text Only | Print | Product List | Glossary On
Versions: 1 2 3 4 5 6 7 8 9 10 11 12 13 14
000
FTUS46 KHNX 262320
TAFMER
TAF
KMER 262320Z 2700/2724 36012KT P6SM SCT200
     FM270300 36006KT P6SM FEW100 SCT200
     FM270900 VRB03KT P6SM SCT100 BKN200
     FM271500 VRB03KT P6SM SCT050 BKN100
     FM271800 34008KT P6SM BKN050
      TEMPO 2720/2724 -RA=

USA.gov is the U.S. government's official web portal to all federal, state and local government web resources and services.